createdAt,value
2019-01-08T00:00:38.142Z,2.60
2019-01-08T00:03:07.077Z,2.60
2019-01-08T00:05:35.933Z,2.60
2019-01-08T00:08:04.943Z,2.60
2019-01-08T00:10:33.991Z,2.60
2019-01-08T00:13:03.019Z,2.50
2019-01-08T00:15:34.971Z,2.60
2019-01-08T00:18:04.038Z,2.50
2019-01-08T00:20:33.323Z,2.50
2019-01-08T00:23:05.375Z,2.60
2019-01-08T00:25:34.234Z,2.70
2019-01-08T00:28:03.098Z,2.70
2019-01-08T00:30:32.047Z,2.60
2019-01-08T00:33:00.916Z,2.70
2019-01-08T00:35:30.114Z,2.70
2019-01-08T00:37:58.965Z,2.80
2019-01-08T00:40:27.905Z,2.80
2019-01-08T00:42:56.842Z,2.70
2019-01-08T00:45:25.713Z,2.60
2019-01-08T00:47:54.831Z,2.70
2019-01-08T00:50:23.688Z,2.70
2019-01-08T00:52:52.635Z,2.60
2019-01-08T00:55:21.590Z,2.60
2019-01-08T00:57:50.607Z,2.60
2019-01-08T01:00:19.624Z,2.50
2019-01-08T01:02:48.621Z,2.50
2019-01-08T01:05:17.485Z,2.50
2019-01-08T01:07:46.406Z,2.40
2019-01-08T01:10:15.632Z,2.40
2019-01-08T01:12:44.478Z,2.50
2019-01-08T01:15:13.761Z,2.50
2019-01-08T01:17:42.613Z,2.40
2019-01-08T01:20:11.617Z,2.20
2019-01-08T01:22:40.465Z,2.30
2019-01-08T01:25:09.551Z,2.40
2019-01-08T01:27:38.809Z,2.20
2019-01-08T01:30:07.966Z,2.20
2019-01-08T01:32:36.901Z,2.30
2019-01-08T01:35:05.989Z,2.30
2019-01-08T01:37:35.015Z,2.40
2019-01-08T01:40:04.250Z,2.50
2019-01-08T01:42:33.190Z,2.60
2019-01-08T01:45:02.053Z,2.30
2019-01-08T01:47:30.892Z,2.30
2019-01-08T01:49:59.793Z,2.20
2019-01-08T01:52:28.722Z,2.20
2019-01-08T01:54:57.561Z,2.10
2019-01-08T01:57:26.417Z,2.10
2019-01-08T01:59:55.269Z,2.20
2019-01-08T02:02:24.202Z,2.10
2019-01-08T02:04:54.464Z,2.10
2019-01-08T02:07:24.045Z,2.10
2019-01-08T02:09:53.036Z,2.10
2019-01-08T02:12:22.073Z,2.10
2019-01-08T02:14:51.089Z,2.10
2019-01-08T02:17:19.972Z,2.10
2019-01-08T02:19:48.817Z,2.00
2019-01-08T02:22:17.668Z,2.00
2019-01-08T02:24:46.513Z,2.00
2019-01-08T02:27:15.373Z,2.00
2019-01-08T02:29:44.215Z,2.00
2019-01-08T02:32:13.073Z,2.10
2019-01-08T02:34:41.922Z,2.10
2019-01-08T02:37:10.871Z,2.10
2019-01-08T02:39:39.780Z,2.00
2019-01-08T02:42:08.647Z,2.00
2019-01-08T02:44:37.898Z,1.90
2019-01-08T02:47:06.975Z,1.80
2019-01-08T02:49:35.999Z,1.80
2019-01-08T02:52:05.013Z,1.70
2019-01-08T02:54:33.882Z,1.80
2019-01-08T02:57:02.945Z,1.80
2019-01-08T02:59:31.781Z,1.90
2019-01-08T03:02:00.628Z,1.90
2019-01-08T03:04:29.480Z,1.90
2019-01-08T03:06:58.326Z,1.90
2019-01-08T03:09:27.189Z,1.80
2019-01-08T03:11:56.037Z,1.90
2019-01-08T03:14:24.965Z,2.00
2019-01-08T03:16:53.833Z,2.10
2019-01-08T03:19:22.689Z,2.00
2019-01-08T03:21:51.534Z,2.00
2019-01-08T03:24:20.721Z,2.10
2019-01-08T03:26:49.641Z,2.10
2019-01-08T03:29:18.523Z,2.10
2019-01-08T03:31:47.539Z,2.10
2019-01-08T03:34:16.426Z,2.20
2019-01-08T03:36:45.272Z,2.20
2019-01-08T03:39:14.125Z,2.20
2019-01-08T03:41:43.037Z,2.20
2019-01-08T03:44:12.046Z,2.30
2019-01-08T03:46:40.945Z,2.30
2019-01-08T03:49:10.128Z,2.20
2019-01-08T03:51:39.109Z,2.30
2019-01-08T03:54:08.038Z,2.30
2019-01-08T03:56:37.026Z,2.30
2019-01-08T03:59:05.880Z,2.30
2019-01-08T04:01:34.797Z,2.30
2019-01-08T04:04:03.815Z,2.40
2019-01-08T04:06:32.758Z,2.30
2019-01-08T04:09:02.097Z,2.30
2019-01-08T04:11:31.016Z,2.40
2019-01-08T04:13:59.860Z,2.40
2019-01-08T04:16:28.766Z,2.40
2019-01-08T04:18:57.762Z,2.40
2019-01-08T04:21:26.673Z,2.40
2019-01-08T04:23:55.519Z,2.50
2019-01-08T04:26:24.429Z,2.40
2019-01-08T04:28:53.281Z,2.30
2019-01-08T04:31:22.192Z,2.30
2019-01-08T04:33:51.495Z,2.30
2019-01-08T04:36:20.407Z,2.30
2019-01-08T04:38:49.257Z,2.20
2019-01-08T04:41:18.168Z,2.00
2019-01-08T04:43:47.030Z,1.90
2019-01-08T04:46:16.062Z,1.80
2019-01-08T04:48:44.901Z,1.90
2019-01-08T04:51:13.822Z,1.90
2019-01-08T04:53:42.660Z,1.90
2019-01-08T04:56:11.515Z,2.00
2019-01-08T04:58:40.377Z,1.90
2019-01-08T05:01:09.304Z,1.90
2019-01-08T05:03:38.145Z,1.90
2019-01-08T05:06:07.069Z,1.90
2019-01-08T05:08:35.910Z,1.90
2019-01-08T05:11:04.825Z,2.00
2019-01-08T05:13:33.736Z,2.10
2019-01-08T05:16:02.676Z,2.10
2019-01-08T05:18:31.602Z,2.00
2019-01-08T05:21:00.566Z,2.00
2019-01-08T05:23:29.636Z,2.10
2019-01-08T05:25:58.501Z,2.10
2019-01-08T05:28:27.417Z,2.10
2019-01-08T05:30:56.450Z,2.00
2019-01-08T05:33:25.369Z,1.90
2019-01-08T05:35:54.225Z,1.80
2019-01-08T05:38:23.068Z,1.90
2019-01-08T05:40:51.917Z,1.90
2019-01-08T05:43:20.829Z,1.90
2019-01-08T05:45:49.752Z,1.80
2019-01-08T05:48:18.669Z,1.90
2019-01-08T05:50:47.594Z,2.00
2019-01-08T05:53:16.434Z,2.00
2019-01-08T05:55:45.276Z,2.10
2019-01-08T05:58:14.124Z,2.10
2019-01-08T06:00:42.976Z,2.20
2019-01-08T06:03:11.837Z,2.10
2019-01-08T06:05:40.685Z,2.10
2019-01-08T06:08:09.574Z,2.10
2019-01-08T06:10:38.596Z,2.20
2019-01-08T06:13:07.530Z,2.20
2019-01-08T06:15:36.450Z,2.30
2019-01-08T06:18:05.537Z,2.40
2019-01-08T06:20:34.457Z,2.30
2019-01-08T06:23:03.301Z,2.30
2019-01-08T06:25:32.162Z,2.30
2019-01-08T06:28:01.018Z,2.40
2019-01-08T06:30:29.936Z,2.40
2019-01-08T06:32:58.844Z,2.40
2019-01-08T06:35:27.708Z,2.50
2019-01-08T06:37:56.549Z,2.50
2019-01-08T06:40:25.414Z,2.70
2019-01-08T06:42:54.496Z,2.60
2019-01-08T06:45:23.732Z,2.60
2019-01-08T06:47:52.573Z,2.60
2019-01-08T06:50:21.518Z,2.60
2019-01-08T06:52:50.454Z,2.60
2019-01-08T06:55:19.382Z,2.60
2019-01-08T06:57:48.229Z,2.60
2019-01-08T07:00:17.234Z,2.60
2019-01-08T07:02:46.090Z,2.50
2019-01-08T07:05:15.004Z,2.50
2019-01-08T07:07:43.857Z,2.60
2019-01-08T07:10:12.760Z,2.80
2019-01-08T07:12:41.610Z,2.80
2019-01-08T07:15:10.600Z,2.70
2019-01-08T07:17:39.597Z,2.70
2019-01-08T07:20:08.909Z,2.80
2019-01-08T07:22:37.758Z,2.70
2019-01-08T07:25:06.765Z,2.60
2019-01-08T07:27:35.614Z,2.60
2019-01-08T07:30:04.802Z,2.60
2019-01-08T07:32:33.834Z,2.60
2019-01-08T07:35:02.762Z,2.60
2019-01-08T07:37:31.706Z,2.70
2019-01-08T07:40:00.545Z,2.70
2019-01-08T07:42:29.417Z,2.60
2019-01-08T07:44:58.514Z,2.60
2019-01-08T07:47:27.438Z,2.70
2019-01-08T07:49:56.300Z,2.70
2019-01-08T07:52:25.237Z,2.70
2019-01-08T07:54:54.094Z,2.70
2019-01-08T07:57:23.017Z,2.80
2019-01-08T07:59:51.865Z,2.80
2019-01-08T08:02:21.135Z,2.80
2019-01-08T08:04:50.061Z,2.70
2019-01-08T08:07:18.929Z,2.60
2019-01-08T08:09:47.775Z,2.70
2019-01-08T08:12:16.825Z,2.80
2019-01-08T08:14:45.851Z,2.80
2019-01-08T08:17:14.781Z,2.90
2019-01-08T08:19:43.805Z,2.80
2019-01-08T08:22:12.657Z,2.80
2019-01-08T08:24:41.515Z,2.80
2019-01-08T08:27:10.361Z,2.80
2019-01-08T08:29:39.285Z,2.90
2019-01-08T08:32:08.437Z,2.80
2019-01-08T08:34:37.382Z,2.90
2019-01-08T08:37:06.302Z,2.80
2019-01-08T08:39:35.205Z,2.80
2019-01-08T08:42:04.131Z,2.80
2019-01-08T08:44:33.061Z,2.90
2019-01-08T08:47:01.998Z,3.00
2019-01-08T08:49:30.863Z,3.00
2019-01-08T08:51:59.773Z,3.10
2019-01-08T08:54:28.832Z,3.10
2019-01-08T08:56:57.843Z,3.10
2019-01-08T08:59:26.700Z,3.10
2019-01-08T09:01:55.549Z,3.10
2019-01-08T09:04:24.475Z,3.20
2019-01-08T09:06:53.329Z,3.30
2019-01-08T09:09:22.197Z,3.30
2019-01-08T09:11:51.046Z,3.30
2019-01-08T09:14:19.977Z,3.30
2019-01-08T09:16:48.897Z,3.30
2019-01-08T09:19:18.018Z,3.30
2019-01-08T09:21:47.018Z,3.30
2019-01-08T09:24:15.937Z,3.30
2019-01-08T09:26:44.930Z,3.30
2019-01-08T09:29:13.784Z,3.20
2019-01-08T09:31:42.707Z,3.10
2019-01-08T09:34:11.571Z,3.00
2019-01-08T09:36:40.497Z,2.80
2019-01-08T09:39:09.575Z,2.80
2019-01-08T09:41:38.599Z,2.90
2019-01-08T09:44:07.622Z,3.00
2019-01-08T09:46:36.486Z,3.00
2019-01-08T09:49:05.496Z,3.00
2019-01-08T09:51:34.498Z,3.10
2019-01-08T09:54:03.454Z,3.10
2019-01-08T09:56:32.378Z,3.20
2019-01-08T09:59:01.309Z,3.20
2019-01-08T10:01:30.230Z,3.20
2019-01-08T10:03:59.113Z,3.20
2019-01-08T10:06:27.954Z,3.20
2019-01-08T10:08:56.893Z,3.40
2019-01-08T10:11:26.078Z,3.50
2019-01-08T10:16:44.666Z,3.50
2019-01-08T10:19:13.719Z,3.50
2019-01-08T10:21:42.747Z,3.50
2019-01-08T10:24:11.750Z,3.50
2019-01-08T10:26:40.981Z,3.60
2019-01-08T10:29:09.905Z,3.70
2019-01-08T10:31:38.837Z,3.80
2019-01-08T10:34:07.851Z,3.90
2019-01-08T10:36:36.709Z,3.90
2019-01-08T10:39:08.274Z,4.00
2019-01-08T10:41:37.310Z,4.00
2019-01-08T10:44:06.237Z,3.90
2019-01-08T10:46:37.628Z,4.00
2019-01-08T10:49:05.819Z,4.00
2019-01-08T10:51:34.742Z,3.90
2019-01-08T10:54:03.967Z,4.00
2019-01-08T10:56:33.011Z,4.00
2019-01-08T10:59:07.514Z,3.90
2019-01-08T11:01:40.284Z,3.90
2019-01-08T11:04:03.366Z,3.90
2019-01-08T11:06:32.303Z,3.90
2019-01-08T11:09:01.213Z,3.80
2019-01-08T11:11:30.082Z,3.50
2019-01-08T11:13:58.933Z,3.40
2019-01-08T11:16:27.858Z,3.40
2019-01-08T11:18:57.009Z,3.50
2019-01-08T11:21:25.865Z,3.60
2019-01-08T11:23:54.786Z,3.50
2019-01-08T11:26:23.713Z,3.50
2019-01-08T11:28:52.557Z,3.50
2019-01-08T11:31:21.426Z,3.60
2019-01-08T11:33:50.467Z,3.60
2019-01-08T11:36:19.415Z,3.80
2019-01-08T11:38:48.405Z,3.80
2019-01-08T11:41:17.333Z,3.70
2019-01-08T11:43:46.186Z,3.80
2019-01-08T11:46:15.386Z,3.90
2019-01-08T11:48:44.230Z,4.00
2019-01-08T11:51:13.097Z,4.10
2019-01-08T11:53:42.235Z,4.10
2019-01-08T11:56:11.235Z,4.20
2019-01-08T11:58:40.087Z,4.20
2019-01-08T12:01:08.946Z,4.20
2019-01-08T12:03:37.877Z,4.30
2019-01-08T12:06:06.868Z,4.50
2019-01-08T12:08:35.789Z,4.50
2019-01-08T12:11:05.066Z,4.70
2019-01-08T12:13:34.013Z,5.00
2019-01-08T12:16:02.929Z,5.10
2019-01-08T12:18:31.974Z,5.10
2019-01-08T12:21:00.920Z,5.20
2019-01-08T12:23:29.874Z,5.30
2019-01-08T12:25:59.050Z,5.20
2019-01-08T12:28:27.977Z,5.20
2019-01-08T12:30:56.982Z,5.00
2019-01-08T12:33:25.837Z,5.00
2019-01-08T12:35:54.773Z,4.90
2019-01-08T12:38:23.633Z,4.80
2019-01-08T12:40:52.626Z,4.90
2019-01-08T12:43:21.479Z,5.10
2019-01-08T12:45:50.394Z,5.30
2019-01-08T12:48:19.263Z,5.20
2019-01-08T12:50:48.122Z,5.20
2019-01-08T12:53:16.973Z,5.20
2019-01-08T12:55:45.817Z,5.30
2019-01-08T12:58:14.746Z,5.10
2019-01-08T13:00:43.945Z,4.90
2019-01-08T13:03:12.946Z,5.00
2019-01-08T13:05:41.965Z,5.10
2019-01-08T13:08:10.920Z,5.30
2019-01-08T13:10:39.914Z,5.20
2019-01-08T13:13:09.101Z,5.40
2019-01-08T13:15:40.769Z,5.50
2019-01-08T13:18:09.623Z,5.50
2019-01-08T13:20:38.465Z,5.40
2019-01-08T13:23:07.410Z,5.40
2019-01-08T13:25:36.330Z,5.30
2019-01-08T13:28:05.342Z,5.30
2019-01-08T13:30:34.189Z,5.20
2019-01-08T13:33:03.185Z,5.10
2019-01-08T13:35:32.056Z,5.00
2019-01-08T13:38:01.236Z,5.00
2019-01-08T13:40:30.166Z,5.00
2019-01-08T13:42:59.006Z,5.00
2019-01-08T13:45:27.870Z,5.00
2019-01-08T13:47:56.818Z,5.00
2019-01-08T13:50:25.868Z,4.90
2019-01-08T13:52:54.875Z,4.80
2019-01-08T13:55:23.887Z,4.80
2019-01-08T13:57:53.102Z,4.70
2019-01-08T14:00:22.107Z,4.60
2019-01-08T14:02:50.965Z,4.50
2019-01-08T14:05:20.085Z,4.50
2019-01-08T14:07:49.201Z,4.50
2019-01-08T14:10:18.305Z,4.40
2019-01-08T14:12:47.153Z,4.40
2019-01-08T14:15:16.155Z,4.40
2019-01-08T14:17:45.010Z,4.40
2019-01-08T14:20:13.937Z,4.40
2019-01-08T14:22:42.866Z,4.40
2019-01-08T14:25:11.869Z,4.40
2019-01-08T14:27:41.153Z,4.50
2019-01-08T14:30:10.475Z,4.40
2019-01-08T14:32:40.871Z,4.40
2019-01-08T14:35:10.107Z,4.40
2019-01-08T14:37:39.030Z,4.40
2019-01-08T14:40:08.244Z,4.40
2019-01-08T14:42:37.226Z,4.40
2019-01-08T14:45:06.378Z,4.40
2019-01-08T14:47:35.302Z,4.30
2019-01-08T14:50:04.549Z,4.30
2019-01-08T14:52:33.566Z,4.40
2019-01-08T14:55:02.658Z,4.30
2019-01-08T14:57:31.598Z,4.30
2019-01-08T15:00:00.526Z,4.40
2019-01-08T15:02:29.448Z,4.40
2019-01-08T15:04:58.286Z,4.40
2019-01-08T15:07:27.315Z,4.20
2019-01-08T15:09:56.346Z,4.20
2019-01-08T15:12:25.289Z,4.20
2019-01-08T15:14:54.277Z,4.20
2019-01-08T15:17:23.134Z,4.20
2019-01-08T15:19:51.981Z,4.20
2019-01-08T15:22:20.837Z,4.10
2019-01-08T15:24:49.692Z,4.20
2019-01-08T15:27:18.617Z,4.10
2019-01-08T15:29:47.462Z,4.00
2019-01-08T15:32:17.056Z,4.10
2019-01-08T15:34:45.988Z,4.00
2019-01-08T15:37:14.921Z,3.90
2019-01-08T15:39:43.843Z,4.00
2019-01-08T15:42:12.702Z,3.90
2019-01-08T15:44:41.633Z,3.90
2019-01-08T15:47:10.484Z,3.90
2019-01-08T15:49:39.523Z,4.00
2019-01-08T15:52:08.568Z,4.00
2019-01-08T15:54:37.498Z,4.00
2019-01-08T15:57:06.354Z,4.00
2019-01-08T15:59:35.553Z,3.90
2019-01-08T16:02:04.553Z,3.80
2019-01-08T16:04:33.469Z,3.90
2019-01-08T16:07:02.646Z,4.00
2019-01-08T16:09:31.560Z,3.90
2019-01-08T16:12:00.413Z,3.90
2019-01-08T16:14:29.337Z,3.80
2019-01-08T16:16:58.281Z,3.80
2019-01-08T16:19:27.290Z,3.80
2019-01-08T16:21:56.386Z,3.80
2019-01-08T16:24:25.237Z,3.80
2019-01-08T16:26:54.174Z,3.80
2019-01-08T16:29:23.050Z,3.90
2019-01-08T16:31:52.074Z,3.70
2019-01-08T16:34:21.100Z,3.80
2019-01-08T16:36:50.098Z,3.80
2019-01-08T16:39:19.046Z,3.70
2019-01-08T16:41:47.975Z,3.70
2019-01-08T16:44:16.905Z,3.80
2019-01-08T16:46:45.893Z,3.80
2019-01-08T16:49:14.912Z,3.70
2019-01-08T16:51:43.929Z,3.60
2019-01-08T16:54:12.787Z,3.70
2019-01-08T16:56:41.639Z,3.70
2019-01-08T16:59:10.513Z,3.70
2019-01-08T17:01:39.501Z,3.70
2019-01-08T17:04:08.526Z,3.70
2019-01-08T17:06:37.473Z,3.70
2019-01-08T17:09:07.077Z,3.60
2019-01-08T17:11:36.006Z,3.50
2019-01-08T17:14:05.040Z,3.50
2019-01-08T17:16:33.885Z,3.50
2019-01-08T17:19:02.828Z,3.30
2019-01-08T17:21:31.821Z,3.30
2019-01-08T17:24:00.833Z,3.30
2019-01-08T17:26:29.827Z,3.40
2019-01-08T17:28:58.837Z,3.50
2019-01-08T17:31:27.841Z,3.40
2019-01-08T17:33:56.845Z,3.40
2019-01-08T17:36:25.761Z,3.20
2019-01-08T17:38:54.757Z,3.10
2019-01-08T17:41:23.685Z,3.20
2019-01-08T17:43:52.709Z,3.30
2019-01-08T17:46:21.778Z,3.30
2019-01-08T17:48:50.721Z,3.30
2019-01-08T17:51:19.615Z,3.30
2019-01-08T17:53:48.843Z,3.40
2019-01-08T17:56:17.813Z,3.30
2019-01-08T17:58:50.241Z,3.30
2019-01-08T18:01:31.149Z,3.20
2019-01-08T18:04:00.157Z,3.20
2019-01-08T18:06:29.397Z,3.20
2019-01-08T18:08:58.281Z,3.10
2019-01-08T18:11:27.215Z,3.10
2019-01-08T18:13:56.074Z,3.00
2019-01-08T18:16:25.326Z,3.00
2019-01-08T18:18:54.450Z,3.10
2019-01-08T18:21:23.457Z,3.20
2019-01-08T18:23:52.572Z,3.20
2019-01-08T18:26:21.717Z,3.20
2019-01-08T18:28:50.641Z,3.00
2019-01-08T18:31:19.837Z,3.00
2019-01-08T18:33:51.832Z,3.10
2019-01-08T18:36:19.573Z,3.10
2019-01-08T18:38:48.569Z,3.00
2019-01-08T18:41:17.446Z,3.00
2019-01-08T18:43:46.459Z,3.00
2019-01-08T18:46:15.387Z,3.10
2019-01-08T18:48:44.301Z,3.20
2019-01-08T18:51:13.165Z,3.20
2019-01-08T18:53:42.177Z,3.10
2019-01-08T18:56:11.090Z,3.00
2019-01-08T18:58:40.032Z,3.00
2019-01-08T19:01:08.892Z,3.10
2019-01-08T19:03:37.833Z,3.20
2019-01-08T19:06:06.847Z,3.20
2019-01-08T19:09:12.057Z,3.10
2019-01-08T19:11:40.991Z,3.10
2019-01-08T19:14:10.421Z,3.10
2019-01-08T19:16:39.388Z,3.10
2019-01-08T19:19:08.309Z,3.10
2019-01-08T19:21:37.270Z,3.10
2019-01-08T19:24:06.545Z,3.20
2019-01-08T19:26:35.936Z,3.20
2019-01-08T19:29:04.986Z,3.20
2019-01-08T19:31:35.511Z,3.20
2019-01-08T19:34:09.287Z,3.20
2019-01-08T19:36:35.413Z,3.20
2019-01-08T19:39:07.250Z,3.30
2019-01-08T19:41:36.349Z,3.30
2019-01-08T19:44:05.512Z,3.30
2019-01-08T19:46:34.545Z,3.30
2019-01-08T19:49:03.923Z,3.30
2019-01-08T19:51:32.850Z,3.30
2019-01-08T19:54:02.048Z,3.40
2019-01-08T19:56:31.080Z,3.40
2019-01-08T19:59:00.025Z,3.40
2019-01-08T20:01:29.054Z,3.50
2019-01-08T20:03:58.145Z,3.50
2019-01-08T20:06:26.997Z,3.50
2019-01-08T20:08:56.028Z,3.50
2019-01-08T20:11:25.347Z,3.30
2019-01-08T20:13:55.109Z,3.30
2019-01-08T20:16:24.069Z,3.30
2019-01-08T20:18:53.300Z,3.30
2019-01-08T20:21:22.285Z,3.30
2019-01-08T20:23:51.217Z,3.30
2019-01-08T20:26:20.205Z,3.30
2019-01-08T20:28:49.205Z,3.20
2019-01-08T20:31:18.057Z,3.30
2019-01-08T20:33:47.359Z,3.30
2019-01-08T20:36:16.282Z,3.20
2019-01-08T20:38:45.205Z,3.20
2019-01-08T20:41:14.306Z,3.30
2019-01-08T20:43:43.491Z,3.30
2019-01-08T20:46:12.506Z,3.30
2019-01-08T20:48:41.446Z,3.30
2019-01-08T20:51:10.301Z,3.30
2019-01-08T20:53:39.313Z,3.30
2019-01-08T20:56:08.295Z,3.30
2019-01-08T20:58:37.178Z,3.30
2019-01-08T21:01:06.197Z,3.30
2019-01-08T21:03:35.308Z,3.30
2019-01-08T21:06:04.573Z,3.30
2019-01-08T21:08:33.896Z,3.30
2019-01-08T21:11:03.148Z,3.20
2019-01-08T21:13:51.610Z,3.20
2019-01-08T21:16:26.394Z,3.20
2019-01-08T21:18:55.580Z,3.30
2019-01-08T21:21:25.078Z,3.20
2019-01-08T21:23:54.195Z,3.20
2019-01-08T21:26:23.383Z,3.20
2019-01-08T21:28:52.547Z,3.20
2019-01-08T21:31:22.379Z,3.20
2019-01-08T21:33:51.687Z,3.10
2019-01-08T21:36:20.930Z,3.10
2019-01-08T21:38:50.077Z,3.10
2019-01-08T21:41:19.412Z,3.10
2019-01-08T21:43:49.769Z,3.00
2019-01-08T21:46:18.905Z,3.00
2019-01-08T21:49:07.207Z,3.00
2019-01-08T21:51:36.380Z,3.00
2019-01-08T21:54:05.620Z,3.10
2019-01-08T21:56:34.888Z,3.10
2019-01-08T21:59:04.002Z,3.20
2019-01-08T22:01:35.529Z,3.20
2019-01-08T22:04:04.699Z,3.10
2019-01-08T22:06:34.123Z,3.00
2019-01-08T22:09:03.397Z,3.00
2019-01-08T22:11:32.921Z,3.00
2019-01-08T22:14:01.974Z,3.00
2019-01-08T22:16:31.167Z,3.00
2019-01-08T22:19:00.515Z,3.00
2019-01-08T22:21:29.747Z,2.90
2019-01-08T22:23:58.881Z,3.00
2019-01-08T22:26:28.253Z,2.90
2019-01-08T22:28:58.188Z,3.00
2019-01-08T22:31:27.327Z,3.00
2019-01-08T22:33:56.580Z,3.00
2019-01-08T22:36:25.774Z,2.90
2019-01-08T22:38:55.882Z,3.00
2019-01-08T22:41:25.124Z,3.00
2019-01-08T22:43:54.180Z,3.00
2019-01-08T22:46:23.333Z,3.00
2019-01-08T22:48:52.863Z,3.00
2019-01-08T22:51:21.923Z,3.00
2019-01-08T22:54:10.292Z,3.00
2019-01-08T22:56:39.414Z,3.10
2019-01-08T22:59:08.488Z,2.90
2019-01-08T23:01:40.091Z,2.90
2019-01-08T23:04:11.419Z,2.80
2019-01-08T23:06:40.533Z,2.80
2019-01-08T23:09:10.582Z,2.90
2019-01-08T23:11:39.744Z,2.80
2019-01-08T23:14:08.789Z,2.80
2019-01-08T23:16:37.817Z,2.90
2019-01-08T23:19:07.238Z,3.00
2019-01-08T23:21:36.422Z,3.00
2019-01-08T23:24:05.689Z,3.00
2019-01-08T23:26:34.693Z,3.00
2019-01-08T23:29:03.696Z,3.00
2019-01-08T23:31:32.636Z,3.10
2019-01-08T23:34:01.666Z,3.10
2019-01-08T23:36:30.699Z,3.00
2019-01-08T23:38:59.701Z,2.90
2019-01-08T23:41:28.712Z,2.90
2019-01-08T23:43:57.719Z,2.90
2019-01-08T23:46:26.765Z,2.80
2019-01-08T23:48:55.765Z,2.80
2019-01-08T23:51:24.772Z,2.80
2019-01-08T23:53:54.770Z,2.80
2019-01-08T23:56:24.267Z,2.80
2019-01-08T23:58:53.423Z,2.70
